createdAt,value
2019-05-15T00:00:12.194Z,102400.89
2019-05-15T00:01:19.253Z,102398.77
2019-05-15T00:02:24.926Z,102397.59
2019-05-15T00:03:29.670Z,102395.98
2019-05-15T00:04:35.509Z,102389.30
2019-05-15T00:05:40.487Z,102391.06
2019-05-15T00:06:48.538Z,102389.34
2019-05-15T00:07:59.358Z,102387.37
2019-05-15T00:09:07.977Z,102392.69
2019-05-15T00:10:12.828Z,102382.74
2019-05-15T00:11:19.212Z,102381.22
2019-05-15T00:12:24.424Z,102381.48
2019-05-15T00:13:30.134Z,102379.89
2019-05-15T00:14:35.489Z,102381.92
2019-05-15T00:15:41.055Z,102381.03
2019-05-15T00:16:48.188Z,102377.34
2019-05-15T00:17:53.709Z,102383.34
2019-05-15T00:18:59.146Z,102385.44
2019-05-15T00:20:04.530Z,102389.64
2019-05-15T00:21:09.572Z,102388.80
2019-05-15T00:22:15.138Z,102386.91
2019-05-15T00:23:20.520Z,102382.45
2019-05-15T00:24:28.631Z,102385.00
2019-05-15T00:25:34.298Z,102381.53
2019-05-15T00:26:39.861Z,102386.13
2019-05-15T00:27:44.691Z,102381.19
2019-05-15T00:28:49.955Z,102379.14
2019-05-15T00:29:57.820Z,102377.98
2019-05-15T00:31:02.803Z,102378.13
2019-05-15T00:32:09.187Z,102378.41
2019-05-15T00:33:15.268Z,102384.14
2019-05-15T00:34:20.543Z,102383.45
2019-05-15T00:35:28.619Z,102380.77
2019-05-15T00:36:33.398Z,102380.48
2019-05-15T00:37:39.179Z,102381.27
2019-05-15T00:38:44.251Z,102378.72
2019-05-15T00:39:50.065Z,102379.00
2019-05-15T00:40:55.378Z,102369.94
2019-05-15T00:42:00.904Z,102380.95
2019-05-15T00:43:05.841Z,102377.61
2019-05-15T00:44:11.408Z,102377.77
2019-05-15T00:45:18.431Z,102377.30
2019-05-15T00:46:23.880Z,102373.64
2019-05-15T00:47:28.901Z,102377.98
2019-05-15T00:48:34.476Z,102375.86
2019-05-15T00:49:39.294Z,102373.55
2019-05-15T00:50:44.851Z,102368.78
2019-05-15T00:51:49.834Z,102376.69
2019-05-15T00:52:55.443Z,102367.65
2019-05-15T00:54:00.561Z,102375.94
2019-05-15T00:55:08.622Z,102370.75
2019-05-15T00:56:13.314Z,102364.18
2019-05-15T00:57:19.311Z,102368.48
2019-05-15T00:58:24.217Z,102367.45
2019-05-15T00:59:30.222Z,102361.28
2019-05-15T01:00:41.387Z,102361.28
2019-05-15T01:01:48.732Z,102361.64
2019-05-15T01:02:53.652Z,102362.23
2019-05-15T01:03:59.251Z,102355.28
2019-05-15T01:05:04.357Z,102358.26
2019-05-15T01:06:09.884Z,102359.23
2019-05-15T01:07:14.874Z,102354.80
2019-05-15T01:08:20.147Z,102358.67
2019-05-15T01:09:25.752Z,102359.14
2019-05-15T01:10:31.394Z,102351.82
2019-05-15T01:11:38.194Z,102351.50
2019-05-15T01:12:43.817Z,102354.75
2019-05-15T01:13:48.816Z,102345.77
2019-05-15T01:14:58.326Z,102352.09
2019-05-15T01:16:03.745Z,102347.48
2019-05-15T01:17:09.326Z,102355.33
2019-05-15T01:18:14.255Z,102345.94
2019-05-15T01:19:19.838Z,102348.79
2019-05-15T01:20:24.940Z,102350.34
2019-05-15T01:21:30.171Z,102349.45
2019-05-15T01:22:35.700Z,102351.62
2019-05-15T01:23:41.871Z,102346.97
2019-05-15T01:24:48.541Z,102348.08
2019-05-15T01:25:54.212Z,102347.01
2019-05-15T01:27:00.032Z,102345.63
2019-05-15T01:28:06.129Z,102345.16
2019-05-15T01:29:11.393Z,102336.73
2019-05-15T01:30:17.979Z,102346.60
2019-05-15T01:31:23.485Z,102345.16
2019-05-15T01:32:28.814Z,102343.48
2019-05-15T01:33:33.783Z,102350.28
2019-05-15T01:34:39.018Z,102340.34
2019-05-15T01:35:44.323Z,102345.84
2019-05-15T01:36:49.550Z,102341.61
2019-05-15T01:37:54.816Z,102345.65
2019-05-15T01:39:00.436Z,102340.20
2019-05-15T01:40:05.502Z,102340.13
2019-05-15T01:41:11.354Z,102342.15
2019-05-15T01:42:18.575Z,102337.16
2019-05-15T01:43:23.951Z,102337.41
2019-05-15T01:44:29.624Z,102341.03
2019-05-15T01:45:35.146Z,102336.78
2019-05-15T01:46:39.856Z,102336.62
2019-05-15T01:47:45.168Z,102336.64
2019-05-15T01:48:50.444Z,102337.00
2019-05-15T01:49:58.297Z,102334.36
2019-05-15T01:51:03.289Z,102332.01
2019-05-15T01:52:08.820Z,102339.84
2019-05-15T01:53:14.062Z,102333.27
2019-05-15T01:54:19.948Z,102332.23
2019-05-15T01:55:24.939Z,102332.70
2019-05-15T01:56:30.486Z,102332.67
2019-05-15T01:57:38.156Z,102337.30
2019-05-15T01:58:43.251Z,102335.30
2019-05-15T01:59:57.009Z,102331.80
2019-05-15T02:00:55.591Z,102339.13
2019-05-15T02:02:00.316Z,102342.91
2019-05-15T02:03:06.125Z,102332.79
2019-05-15T02:04:10.871Z,102334.91
2019-05-15T02:05:16.111Z,102337.16
2019-05-15T02:06:21.346Z,102335.08
2019-05-15T02:07:28.070Z,102336.22
2019-05-15T02:08:33.245Z,102333.85
2019-05-15T02:09:38.775Z,102336.84
2019-05-15T02:10:43.492Z,102333.97
2019-05-15T02:11:49.014Z,102335.64
2019-05-15T02:12:54.074Z,102336.59
2019-05-15T02:13:59.586Z,102335.64
2019-05-15T02:15:04.287Z,102332.64
2019-05-15T02:16:09.934Z,102326.84
2019-05-15T02:17:15.460Z,102330.89
2019-05-15T02:18:20.991Z,102332.64
2019-05-15T02:19:26.036Z,102331.84
2019-05-15T02:20:31.353Z,102325.21
2019-05-15T02:21:37.984Z,102328.66
2019-05-15T02:22:43.142Z,102322.53
2019-05-15T02:23:48.383Z,102327.41
2019-05-15T02:24:54.624Z,102324.91
2019-05-15T02:26:00.126Z,102326.42
2019-05-15T02:27:05.981Z,102322.55
2019-05-15T02:28:10.942Z,102327.15
2019-05-15T02:29:20.357Z,102322.45
2019-05-15T02:30:28.875Z,102332.13
2019-05-15T02:31:31.132Z,102324.91
2019-05-15T02:32:39.591Z,102323.51
2019-05-15T02:33:44.015Z,102326.92
2019-05-15T02:34:50.052Z,102331.59
2019-05-15T02:35:56.193Z,102328.31
2019-05-15T02:37:01.207Z,102326.45
2019-05-15T02:38:10.161Z,102331.70
2019-05-15T02:39:13.379Z,102331.44
2019-05-15T02:40:19.273Z,102331.13
2019-05-15T02:41:24.572Z,102331.42
2019-05-15T02:42:29.901Z,102331.83
2019-05-15T02:43:35.144Z,102331.65
2019-05-15T02:44:40.694Z,102331.67
2019-05-15T02:45:45.981Z,102328.06
2019-05-15T02:46:51.517Z,102330.72
2019-05-15T02:47:59.479Z,102330.02
2019-05-15T02:49:03.862Z,102321.96
2019-05-15T02:50:10.599Z,102327.52
2019-05-15T02:51:19.120Z,102321.45
2019-05-15T02:52:22.903Z,102327.94
2019-05-15T02:53:29.884Z,102325.55
2019-05-15T02:54:35.381Z,102328.70
2019-05-15T02:55:40.831Z,102329.36
2019-05-15T02:56:49.362Z,102328.52
2019-05-15T02:57:54.451Z,102329.53
2019-05-15T02:59:00.150Z,102331.04
2019-05-15T03:00:05.924Z,102327.52
2019-05-15T03:01:10.901Z,102338.31
2019-05-15T03:02:19.005Z,102330.34
2019-05-15T03:03:22.874Z,102328.36
2019-05-15T03:04:29.092Z,102328.41
2019-05-15T03:05:33.868Z,102330.48
2019-05-15T03:06:39.277Z,102336.09
2019-05-15T03:07:44.290Z,102331.20
2019-05-15T03:08:49.922Z,102327.75
2019-05-15T03:09:55.094Z,102332.55
2019-05-15T03:11:00.384Z,102328.05
2019-05-15T03:12:05.175Z,102326.13
2019-05-15T03:13:10.370Z,102333.97
2019-05-15T03:14:15.771Z,102328.08
2019-05-15T03:15:21.306Z,102331.75
2019-05-15T03:16:30.114Z,102327.02
2019-05-15T03:17:33.669Z,102329.91
2019-05-15T03:18:39.785Z,102332.73
2019-05-15T03:19:45.637Z,102339.96
2019-05-15T03:20:50.940Z,102339.30
2019-05-15T03:21:59.649Z,102336.78
2019-05-15T03:23:03.382Z,102338.48
2019-05-15T03:24:10.132Z,102336.61
2019-05-15T03:25:15.157Z,102334.11
2019-05-15T03:26:20.471Z,102333.92
2019-05-15T03:27:25.586Z,102341.31
2019-05-15T03:28:31.299Z,102339.05
2019-05-15T03:29:40.000Z,102339.09
2019-05-15T03:31:12.229Z,102341.39
2019-05-15T03:32:06.441Z,102340.94
2019-05-15T03:33:07.856Z,102340.83
2019-05-15T03:34:04.363Z,102341.97
2019-05-15T03:35:14.712Z,102342.79
2019-05-15T03:36:22.260Z,102344.41
2019-05-15T03:37:23.913Z,102345.08
2019-05-15T03:38:29.857Z,102345.78
2019-05-15T03:39:38.624Z,102349.36
2019-05-15T03:40:42.844Z,102347.80
2019-05-15T03:41:49.711Z,102351.08
2019-05-15T03:42:55.143Z,102353.05
2019-05-15T03:44:00.955Z,102352.76
2019-05-15T03:45:09.631Z,102348.22
2019-05-15T03:46:14.056Z,102351.55
2019-05-15T03:47:19.617Z,102351.46
2019-05-15T03:48:28.586Z,102353.55
2019-05-15T03:49:32.532Z,102348.35
2019-05-15T03:50:40.247Z,102350.73
2019-05-15T03:51:45.885Z,102348.90
2019-05-15T03:52:51.893Z,102351.48
2019-05-15T03:54:00.079Z,102353.43
2019-05-15T03:55:03.704Z,102352.91
2019-05-15T03:56:09.773Z,102354.17
2019-05-15T03:57:20.058Z,102353.84
2019-05-15T03:58:22.976Z,102350.67
2019-05-15T03:59:29.460Z,102355.61
2019-05-15T04:00:34.153Z,102351.94
2019-05-15T04:01:43.568Z,102349.30
2019-05-15T04:02:48.643Z,102351.62
2019-05-15T04:03:52.871Z,102347.39
2019-05-15T04:05:01.565Z,102350.38
2019-05-15T04:06:05.240Z,102349.11
2019-05-15T04:07:10.301Z,102359.33
2019-05-15T04:08:19.157Z,102350.46
2019-05-15T04:09:23.416Z,102352.91
2019-05-15T04:10:29.016Z,102349.19
2019-05-15T04:11:34.362Z,102348.41
2019-05-15T04:12:40.987Z,102359.41
2019-05-15T04:13:49.760Z,102353.62
2019-05-15T04:14:53.529Z,102352.16
2019-05-15T04:15:59.379Z,102349.23
2019-05-15T04:17:04.659Z,102355.89
2019-05-15T04:18:10.042Z,102352.55
2019-05-15T04:19:18.847Z,102355.53
2019-05-15T04:20:21.737Z,102361.36
2019-05-15T04:21:30.392Z,102356.62
2019-05-15T04:22:34.814Z,102352.78
2019-05-15T04:23:41.230Z,102356.51
2019-05-15T04:24:49.383Z,102352.29
2019-05-15T04:25:54.634Z,102357.19
2019-05-15T04:27:00.815Z,102360.50
2019-05-15T04:28:10.176Z,102352.37
2019-05-15T04:29:15.583Z,102357.66
2019-05-15T04:30:20.621Z,102352.16
2019-05-15T04:31:25.660Z,102355.13
2019-05-15T04:32:31.827Z,102353.64
2019-05-15T04:33:39.916Z,102355.34
2019-05-15T04:34:44.570Z,102358.27
2019-05-15T04:35:49.808Z,102353.67
2019-05-15T04:36:55.197Z,102357.97
2019-05-15T04:37:59.986Z,102356.30
2019-05-15T04:39:09.830Z,102357.30
2019-05-15T04:40:14.271Z,102352.97
2019-05-15T04:41:20.247Z,102354.95
2019-05-15T04:42:25.609Z,102354.94
2019-05-15T04:43:39.662Z,102356.56
2019-05-15T04:44:39.487Z,102350.47
2019-05-15T04:45:45.032Z,102353.84
2019-05-15T04:46:50.146Z,102353.69
2019-05-15T04:47:58.757Z,102349.16
2019-05-15T04:49:02.751Z,102352.34
2019-05-15T04:50:09.138Z,102351.52
2019-05-15T04:51:14.399Z,102345.63
2019-05-15T04:52:20.266Z,102349.30
2019-05-15T04:53:25.610Z,102350.16
2019-05-15T04:54:31.505Z,102350.53
2019-05-15T04:55:35.990Z,102350.04
2019-05-15T04:56:41.646Z,102348.86
2019-05-15T04:57:49.963Z,102346.09
2019-05-15T04:58:54.324Z,102340.17
2019-05-15T04:59:59.140Z,102343.45
2019-05-15T05:01:04.427Z,102345.27
2019-05-15T05:02:17.172Z,102347.40
2019-05-15T05:03:19.805Z,102343.98
2019-05-15T05:04:23.875Z,102342.08
2019-05-15T05:05:29.603Z,102341.57
2019-05-15T05:06:38.619Z,102345.81
2019-05-15T05:07:43.278Z,102343.23
2019-05-15T05:08:49.131Z,102341.09
2019-05-15T05:09:54.767Z,102343.88
2019-05-15T05:11:00.010Z,102341.74
2019-05-15T05:12:05.308Z,102349.08
2019-05-15T05:13:10.310Z,102339.35
2019-05-15T05:14:18.657Z,102339.20
2019-05-15T05:15:23.054Z,102344.27
2019-05-15T05:16:29.478Z,102339.13
2019-05-15T05:17:34.646Z,102345.27
2019-05-15T05:18:41.532Z,102335.16
2019-05-15T05:19:47.889Z,102343.35
2019-05-15T05:20:54.079Z,102342.15
2019-05-15T05:21:58.839Z,102344.59
2019-05-15T05:23:04.146Z,102346.27
2019-05-15T05:24:08.877Z,102338.44
2019-05-15T05:25:14.487Z,102344.23
2019-05-15T05:26:19.368Z,102345.06
2019-05-15T05:27:24.668Z,102349.13
2019-05-15T05:28:30.318Z,102347.21
2019-05-15T05:29:38.460Z,102348.84
2019-05-15T05:30:42.659Z,102348.89
2019-05-15T05:31:49.085Z,102350.33
2019-05-15T05:32:53.878Z,102350.59
2019-05-15T05:33:59.679Z,102346.96
2019-05-15T05:35:05.354Z,102350.52
2019-05-15T05:36:10.899Z,102345.54
2019-05-15T05:37:18.129Z,102348.76
2019-05-15T05:38:23.284Z,102350.52
2019-05-15T05:39:29.430Z,102343.74
2019-05-15T05:40:35.152Z,102354.32
2019-05-15T05:41:40.814Z,102351.02
2019-05-15T05:42:47.938Z,102342.11
2019-05-15T05:43:52.629Z,102346.83
2019-05-15T05:44:58.574Z,102350.00
2019-05-15T05:46:03.090Z,102348.57
2019-05-15T05:47:09.398Z,102347.05
2019-05-15T05:48:14.224Z,102352.84
2019-05-15T05:49:19.243Z,102353.19
2019-05-15T05:50:43.819Z,102352.89
2019-05-15T05:51:48.231Z,102350.75
2019-05-15T05:52:53.460Z,102347.34
2019-05-15T05:53:59.179Z,102350.62
2019-05-15T05:55:04.167Z,102342.59
2019-05-15T05:56:09.451Z,102349.70
2019-05-15T05:57:14.495Z,102349.20
2019-05-15T05:58:19.990Z,102348.94
2019-05-15T05:59:25.554Z,102345.27
2019-05-15T06:00:39.355Z,102348.36
2019-05-15T06:01:44.481Z,102352.45
2019-05-15T06:02:52.375Z,102347.17
2019-05-15T06:03:58.168Z,102342.73
2019-05-15T06:05:03.624Z,102348.14
2019-05-15T06:06:09.747Z,102346.67
2019-05-15T06:07:18.318Z,102350.06
2019-05-15T06:08:22.600Z,102343.60
2019-05-15T06:09:28.181Z,102345.98
2019-05-15T06:10:33.201Z,102343.96
2019-05-15T06:11:38.742Z,102344.23
2019-05-15T06:12:44.077Z,102342.48
2019-05-15T06:13:52.505Z,102344.75
2019-05-15T06:14:58.052Z,102346.61
2019-05-15T06:16:03.712Z,102347.43
2019-05-15T06:17:08.770Z,102352.88
2019-05-15T06:18:14.395Z,102345.02
2019-05-15T06:19:19.838Z,102349.43
2019-05-15T06:20:25.135Z,102347.78
2019-05-15T06:21:29.936Z,102344.36
2019-05-15T06:22:35.541Z,102344.63
2019-05-15T06:23:45.658Z,102347.32
2019-05-15T06:24:48.509Z,102342.27
2019-05-15T06:25:54.057Z,102348.61
2019-05-15T06:26:59.694Z,102345.68
2019-05-15T06:28:04.488Z,102351.48
2019-05-15T06:29:10.231Z,102353.34
2019-05-15T06:30:22.202Z,102350.64
2019-05-15T06:31:22.667Z,102347.09
2019-05-15T06:32:28.952Z,102343.38
2019-05-15T06:33:34.676Z,102348.38
2019-05-15T06:34:40.015Z,102346.38
2019-05-15T06:35:45.567Z,102347.22
2019-05-15T06:36:50.717Z,102344.55
2019-05-15T06:37:59.104Z,102344.55
2019-05-15T06:39:08.331Z,102340.91
2019-05-15T06:40:12.902Z,102346.98
2019-05-15T06:41:18.485Z,102346.68
2019-05-15T06:42:23.829Z,102348.81
2019-05-15T06:43:28.835Z,102352.27
2019-05-15T06:44:34.420Z,102349.44
2019-05-15T06:45:40.981Z,102351.20
2019-05-15T06:46:48.359Z,102347.71
2019-05-15T06:47:53.399Z,102344.67
2019-05-15T06:48:59.143Z,102348.25
2019-05-15T06:50:04.106Z,102349.78
2019-05-15T06:51:09.910Z,102351.59
2019-05-15T06:52:14.408Z,102348.66
2019-05-15T06:53:19.807Z,102348.05
2019-05-15T06:54:25.148Z,102350.28
2019-05-15T06:55:30.770Z,102350.38
2019-05-15T06:56:38.636Z,102343.02
2019-05-15T06:57:43.369Z,102344.44
2019-05-15T06:58:48.711Z,102342.53
2019-05-15T06:59:54.652Z,102342.88
2019-05-15T07:00:59.639Z,102344.52
2019-05-15T07:02:04.727Z,102341.42
2019-05-15T07:03:20.115Z,102337.28
2019-05-15T07:04:18.169Z,102339.47
2019-05-15T07:05:22.597Z,102339.78
2019-05-15T07:06:28.690Z,102347.47
2019-05-15T07:07:33.753Z,102353.31
2019-05-15T07:08:39.423Z,102349.78
2019-05-15T07:09:44.168Z,102353.39
2019-05-15T07:10:50.096Z,102352.89
2019-05-15T07:11:55.401Z,102348.42
2019-05-15T07:13:00.429Z,102356.49
2019-05-15T07:14:05.380Z,102357.56
2019-05-15T07:15:10.648Z,102345.78
2019-05-15T07:16:18.053Z,102349.61
2019-05-15T07:17:23.093Z,102359.70
2019-05-15T07:18:28.453Z,102351.03
2019-05-15T07:19:33.909Z,102353.50
2019-05-15T07:20:39.234Z,102350.91
2019-05-15T07:21:45.103Z,102355.22
2019-05-15T07:22:50.399Z,102355.81
2019-05-15T07:23:58.385Z,102353.82
2019-05-15T07:25:03.110Z,102350.28
2019-05-15T07:26:09.422Z,102350.98
2019-05-15T07:27:14.630Z,102344.66
2019-05-15T07:28:20.540Z,102347.14
2019-05-15T07:29:25.829Z,102349.99
2019-05-15T07:30:31.376Z,102347.59
2019-05-15T07:31:38.219Z,102347.05
2019-05-15T07:32:43.726Z,102344.48
2019-05-15T07:33:49.266Z,102346.84
2019-05-15T07:34:54.753Z,102344.48
2019-05-15T07:35:59.306Z,102338.77
2019-05-15T07:37:04.909Z,102339.83
2019-05-15T07:38:09.892Z,102340.78
2019-05-15T07:39:15.158Z,102335.41
2019-05-15T07:40:20.417Z,102332.23
2019-05-15T07:41:28.554Z,102339.83
2019-05-15T07:42:33.289Z,102338.87
2019-05-15T07:43:38.843Z,102339.63
2019-05-15T07:44:43.923Z,102344.23
2019-05-15T07:45:54.221Z,102330.94
2019-05-15T07:46:58.393Z,102332.97
2019-05-15T07:48:04.022Z,102333.56
2019-05-15T07:49:09.370Z,102336.02
2019-05-15T07:50:16.495Z,102331.35
2019-05-15T07:51:21.861Z,102332.09
2019-05-15T07:52:28.864Z,102333.39
2019-05-15T07:53:33.704Z,102331.32
2019-05-15T07:54:39.631Z,102333.80
2019-05-15T07:55:44.641Z,102341.22
2019-05-15T07:56:50.298Z,102329.05
2019-05-15T07:57:55.238Z,102332.16
2019-05-15T07:59:00.862Z,102330.61
2019-05-15T08:00:08.310Z,102328.06
2019-05-15T08:01:14.439Z,102331.34
2019-05-15T08:02:19.702Z,102326.84
2019-05-15T08:03:25.537Z,102323.44
2019-05-15T08:04:32.890Z,102330.91
2019-05-15T08:05:38.214Z,102322.41
2019-05-15T08:06:43.457Z,102324.52
2019-05-15T08:07:49.136Z,102324.47
2019-05-15T08:08:53.661Z,102325.39
2019-05-15T08:09:59.630Z,102323.73
2019-05-15T08:11:17.433Z,102327.19
2019-05-15T08:12:11.632Z,102321.01
2019-05-15T08:13:18.514Z,102325.93
2019-05-15T08:14:23.694Z,102318.85
2019-05-15T08:15:28.822Z,102316.89
2019-05-15T08:16:34.092Z,102322.98
2019-05-15T08:17:58.489Z,102318.80
2019-05-15T08:18:48.440Z,102313.81
2019-05-15T08:19:53.554Z,102311.47
2019-05-15T08:20:59.057Z,102311.41
2019-05-15T08:22:04.600Z,102312.52
2019-05-15T08:23:09.869Z,102314.38
2019-05-15T08:24:14.600Z,102309.25
2019-05-15T08:25:31.214Z,102306.12
2019-05-15T08:26:28.309Z,102309.55
2019-05-15T08:27:34.015Z,102309.74
2019-05-15T08:28:38.744Z,102299.02
2019-05-15T08:29:44.604Z,102305.88
2019-05-15T08:30:50.034Z,102300.30
2019-05-15T08:31:55.448Z,102296.95
2019-05-15T08:33:00.755Z,102300.77
2019-05-15T08:34:15.194Z,102295.76
2019-05-15T08:35:12.918Z,102292.20
2019-05-15T08:36:18.312Z,102294.11
2019-05-15T08:37:23.305Z,102293.34
2019-05-15T08:38:29.009Z,102297.38
2019-05-15T08:39:34.390Z,102290.49
2019-05-15T08:40:41.002Z,102291.24
2019-05-15T08:41:48.371Z,102293.66
2019-05-15T08:42:58.068Z,102285.66
2019-05-15T08:44:00.418Z,102286.37
2019-05-15T08:45:05.910Z,102289.80
2019-05-15T08:46:10.680Z,102284.03
2019-05-15T08:47:18.944Z,102277.52
2019-05-15T08:48:23.240Z,102278.35
2019-05-15T08:49:28.806Z,102269.39
2019-05-15T08:50:33.685Z,102270.22
2019-05-15T08:51:39.526Z,102260.27
2019-05-15T08:52:44.219Z,102264.02
2019-05-15T08:53:49.549Z,102264.06
2019-05-15T08:54:55.228Z,102256.41
2019-05-15T08:56:01.073Z,102251.78
2019-05-15T08:57:08.487Z,102252.75
2019-05-15T08:58:14.046Z,102252.69
2019-05-15T08:59:19.577Z,102251.45
2019-05-15T09:00:25.735Z,102248.61
2019-05-15T09:01:30.503Z,102246.41
2019-05-15T09:02:38.103Z,102240.89
2019-05-15T09:03:42.738Z,102238.77
2019-05-15T09:04:48.645Z,102237.84
2019-05-15T09:05:54.107Z,102240.11
2019-05-15T09:07:01.247Z,102233.07
2019-05-15T09:08:09.086Z,102233.98
2019-05-15T09:09:13.679Z,102235.53
2019-05-15T09:10:18.602Z,102233.39
2019-05-15T09:11:24.123Z,102228.24
2019-05-15T09:12:29.417Z,102232.24
2019-05-15T09:13:34.617Z,102231.03
2019-05-15T09:14:39.608Z,102230.44
2019-05-15T09:15:44.870Z,102228.20
2019-05-15T09:16:49.849Z,102233.64
2019-05-15T09:18:08.044Z,102222.12
2019-05-15T09:19:01.985Z,102229.14
2019-05-15T09:20:08.204Z,102223.79
2019-05-15T09:21:13.000Z,102227.02
2019-05-15T09:22:18.749Z,102224.65
2019-05-15T09:23:24.489Z,102223.73
2019-05-15T09:24:29.564Z,102226.53
2019-05-15T09:25:34.669Z,102221.90
2019-05-15T09:26:40.650Z,102220.39
2019-05-15T09:27:45.173Z,102211.07
2019-05-15T09:28:50.738Z,102209.10
2019-05-15T09:29:55.671Z,102208.67
2019-05-15T09:31:01.217Z,102207.98
2019-05-15T09:32:08.628Z,102209.80
2019-05-15T09:33:13.961Z,102208.61
2019-05-15T09:34:18.764Z,102209.15
2019-05-15T09:35:23.735Z,102203.55
2019-05-15T09:36:28.871Z,102209.81
2019-05-15T09:37:34.552Z,102203.66
2019-05-15T09:38:40.028Z,102203.03
2019-05-15T09:39:45.631Z,102207.61
2019-05-15T09:40:51.238Z,102213.05
2019-05-15T09:41:57.903Z,102211.66
2019-05-15T09:43:02.749Z,102198.61
2019-05-15T09:44:08.525Z,102196.19
2019-05-15T09:45:13.175Z,102206.09
2019-05-15T09:46:18.785Z,102201.53
2019-05-15T09:47:23.555Z,102195.74
2019-05-15T09:48:29.036Z,102195.94
2019-05-15T09:49:34.281Z,102192.86
2019-05-15T09:50:39.775Z,102192.59
2019-05-15T09:51:44.942Z,102193.52
2019-05-15T09:52:50.354Z,102189.72
2019-05-15T09:53:55.409Z,102193.16
2019-05-15T09:55:00.966Z,102192.13
2019-05-15T09:56:07.980Z,102185.33
2019-05-15T09:57:13.006Z,102191.24
2019-05-15T09:58:20.334Z,102186.58
2019-05-15T09:59:24.736Z,102189.23
2019-05-15T10:00:29.964Z,102186.41
2019-05-15T10:01:35.478Z,102199.48
2019-05-15T10:02:40.195Z,102194.34
2019-05-15T10:03:48.260Z,102191.20
2019-05-15T10:05:05.448Z,102197.28
2019-05-15T10:05:59.550Z,102186.84
2019-05-15T10:07:04.339Z,102189.31
2019-05-15T10:08:10.190Z,102193.30
2019-05-15T10:09:14.886Z,102186.13
2019-05-15T10:10:20.822Z,102189.45
2019-05-15T10:11:28.732Z,102188.61
2019-05-15T10:12:35.151Z,102182.31
2019-05-15T10:13:40.492Z,102184.38
2019-05-15T10:14:48.942Z,102179.34
2019-05-15T10:15:52.384Z,102179.37
2019-05-15T10:16:58.482Z,102183.86
2019-05-15T10:18:03.221Z,102181.66
2019-05-15T10:19:09.167Z,102178.27
2019-05-15T10:20:14.266Z,102183.20
2019-05-15T10:21:19.289Z,102176.61
2019-05-15T10:22:24.307Z,102175.69
2019-05-15T10:23:29.915Z,102176.06
2019-05-15T10:24:35.301Z,102172.44
2019-05-15T10:25:40.885Z,102171.29
2019-05-15T10:26:45.568Z,102163.29
2019-05-15T10:27:51.467Z,102163.58
2019-05-15T10:28:58.280Z,102170.45
2019-05-15T10:30:02.960Z,102172.58
2019-05-15T10:31:09.381Z,102171.16
2019-05-15T10:32:15.259Z,102166.64
2019-05-15T10:33:20.551Z,102170.06
2019-05-15T10:34:26.244Z,102166.63
2019-05-15T10:35:31.848Z,102163.98
2019-05-15T10:36:38.688Z,102170.02
2019-05-15T10:37:43.819Z,102162.55
2019-05-15T10:38:49.279Z,102162.17
2019-05-15T10:39:54.323Z,102155.73
2019-05-15T10:41:08.557Z,102150.98
2019-05-15T10:42:08.238Z,102149.03
2019-05-15T10:43:13.559Z,102141.13
2019-05-15T10:44:18.854Z,102141.81
2019-05-15T10:45:23.914Z,102143.41
2019-05-15T10:46:28.375Z,102141.67
2019-05-15T10:47:33.945Z,102145.72
2019-05-15T10:48:38.676Z,102142.83
2019-05-15T10:49:44.662Z,102143.83
2019-05-15T10:50:49.428Z,102145.77
2019-05-15T10:51:55.102Z,102141.95
2019-05-15T10:53:00.470Z,102137.28
2019-05-15T10:54:08.604Z,102135.47
2019-05-15T10:55:13.798Z,102136.72
2019-05-15T10:56:19.431Z,102137.09
2019-05-15T10:57:27.914Z,102139.14
2019-05-15T10:58:33.852Z,102129.64
2019-05-15T10:59:40.608Z,102132.94
2019-05-15T11:00:49.016Z,102127.29
2019-05-15T11:01:52.696Z,102128.62
2019-05-15T11:02:58.400Z,102130.16
2019-05-15T11:04:03.151Z,102127.40
2019-05-15T11:05:09.595Z,102129.66
2019-05-15T11:06:14.832Z,102127.89
2019-05-15T11:07:20.695Z,102125.42
2019-05-15T11:08:28.958Z,102122.36
2019-05-15T11:09:33.886Z,102117.83
2019-05-15T11:10:41.871Z,102119.70
2019-05-15T11:11:48.689Z,102114.09
2019-05-15T11:12:53.793Z,102129.59
2019-05-15T11:14:00.558Z,102128.17
2019-05-15T11:15:05.529Z,102122.83
2019-05-15T11:16:11.053Z,102119.09
2019-05-15T11:17:16.687Z,102117.56
2019-05-15T11:18:22.239Z,102121.30
2019-05-15T11:19:35.678Z,102108.41
2019-05-15T11:20:33.981Z,102107.28
2019-05-15T11:21:38.456Z,102113.77
2019-05-15T11:22:44.077Z,102107.90
2019-05-15T11:23:49.490Z,102103.80
2019-05-15T11:24:54.817Z,102094.50
2019-05-15T11:25:59.551Z,102085.42
2019-05-15T11:27:05.121Z,102089.12
2019-05-15T11:28:09.852Z,102096.98
2019-05-15T11:29:15.355Z,102102.01
2019-05-15T11:30:20.077Z,102099.27
2019-05-15T11:31:25.608Z,102100.19
2019-05-15T11:32:30.752Z,102103.41
2019-05-15T11:33:38.459Z,102095.19
2019-05-15T11:34:43.520Z,102090.49
2019-05-15T11:36:01.256Z,102088.98
2019-05-15T11:36:55.783Z,102092.75
2019-05-15T11:38:01.060Z,102086.19
2019-05-15T11:39:08.426Z,102092.52
2019-05-15T11:40:15.349Z,102086.44
2019-05-15T11:41:20.851Z,102089.98
2019-05-15T11:42:28.883Z,102095.20
2019-05-15T11:43:33.395Z,102091.23
2019-05-15T11:44:39.082Z,102086.98
2019-05-15T11:45:44.052Z,102086.53
2019-05-15T11:46:49.911Z,102083.17
2019-05-15T11:47:54.887Z,102075.53
2019-05-15T11:49:00.468Z,102075.49
2019-05-15T11:50:08.206Z,102074.08
2019-05-15T11:51:12.681Z,102071.84
2019-05-15T11:52:18.872Z,102067.69
2019-05-15T11:53:24.055Z,102071.43
2019-05-15T11:54:28.745Z,102060.70
2019-05-15T11:55:33.980Z,102061.91
2019-05-15T11:56:39.418Z,102061.45
2019-05-15T11:57:47.577Z,102060.58
2019-05-15T11:58:52.011Z,102057.88
2019-05-15T11:59:59.570Z,102057.20
2019-05-15T12:01:04.239Z,102058.00
2019-05-15T12:02:09.507Z,102043.81
2019-05-15T12:03:14.764Z,102049.05
2019-05-15T12:04:30.173Z,102038.84
2019-05-15T12:05:28.768Z,102039.52
2019-05-15T12:06:34.602Z,102035.73
2019-05-15T12:07:39.836Z,102047.81
2019-05-15T12:08:45.381Z,102032.27
2019-05-15T12:09:50.395Z,102040.00
2019-05-15T12:10:59.221Z,102039.77
2019-05-15T12:12:03.272Z,102036.53
2019-05-15T12:13:09.872Z,102029.97
2019-05-15T12:14:14.847Z,102034.17
2019-05-15T12:15:21.329Z,102028.66
2019-05-15T12:16:28.802Z,102028.98
2019-05-15T12:17:34.243Z,102020.95
2019-05-15T12:18:39.328Z,102026.68
2019-05-15T12:19:55.097Z,102024.17
2019-05-15T12:20:51.698Z,102014.03
2019-05-15T12:21:59.786Z,102017.09
2019-05-15T12:23:03.943Z,102019.28
2019-05-15T12:24:10.111Z,102011.58
2019-05-15T12:25:14.953Z,102015.11
2019-05-15T12:26:20.502Z,102012.98
2019-05-15T12:27:30.538Z,102019.34
2019-05-15T12:28:43.650Z,102014.81
2019-05-15T12:29:52.680Z,102010.52
2019-05-15T12:31:00.965Z,102019.42